createdAt,value
2018-02-07T00:00:01.821Z,-8.3
2018-02-07T00:05:01.860Z,-8.3
2018-02-07T00:10:01.749Z,-8.5
2018-02-07T00:15:01.553Z,-8.5
2018-02-07T00:20:02.595Z,-8.5
2018-02-07T00:25:01.323Z,-8.5
2018-02-07T00:30:01.295Z,-8.6
2018-02-07T00:35:01.445Z,-8.6
2018-02-07T00:40:02.540Z,-8.6
2018-02-07T00:45:01.547Z,-8.7
2018-02-07T00:50:01.840Z,-8.7
2018-02-07T00:55:01.920Z,-8.7
2018-02-07T01:00:02.301Z,-8.7
2018-02-07T01:05:01.627Z,-8.7
2018-02-07T01:10:02.108Z,-8.8
2018-02-07T01:15:01.293Z,-8.8
2018-02-07T01:20:01.637Z,-8.8
2018-02-07T01:25:01.955Z,-8.8
2018-02-07T01:30:01.818Z,-8.8
2018-02-07T01:35:01.745Z,-8.8
2018-02-07T01:40:01.928Z,-8.8
2018-02-07T01:45:01.728Z,-8.8
2018-02-07T01:50:02.218Z,-8.8
2018-02-07T01:55:01.425Z,-8.8
2018-02-07T02:00:01.827Z,-8.8
2018-02-07T02:05:01.454Z,-8.8
2018-02-07T02:10:02.169Z,-8.8
2018-02-07T02:15:01.885Z,-8.8
2018-02-07T02:20:01.906Z,-8.8
2018-02-07T02:25:01.974Z,-8.8
2018-02-07T02:30:02.293Z,-8.8
2018-02-07T02:35:01.938Z,-8.8
2018-02-07T02:40:02.137Z,-9.2
2018-02-07T02:45:01.672Z,-9.2
2018-02-07T02:50:02.178Z,-9.2
2018-02-07T02:55:01.265Z,-9.2
2018-02-07T03:00:02.010Z,-9.2
2018-02-07T03:05:01.234Z,-9.2
2018-02-07T03:10:01.745Z,-9.2
2018-02-07T03:15:01.839Z,-9.3
2018-02-07T03:20:01.840Z,-9.3
2018-02-07T03:25:02.350Z,-9.3
2018-02-07T03:30:01.545Z,-9.3
2018-02-07T03:35:01.765Z,-9.3
2018-02-07T03:40:01.708Z,-9.3
2018-02-07T03:45:01.651Z,-9.3
2018-02-07T03:50:01.210Z,-9.3
2018-02-07T03:55:01.458Z,-9.3
2018-02-07T04:00:02.265Z,-9.4
2018-02-07T04:05:01.873Z,-9.4
2018-02-07T04:10:01.979Z,-9.4
2018-02-07T04:15:01.572Z,-9.4
2018-02-07T04:20:01.966Z,-9.5
2018-02-07T04:25:02.100Z,-9.5
2018-02-07T04:30:01.590Z,-9.5
2018-02-07T04:35:02.118Z,-9.5
2018-02-07T04:40:02.194Z,-9.5
2018-02-07T04:45:01.882Z,-9.4
2018-02-07T04:50:02.601Z,-9.4
2018-02-07T04:55:01.663Z,-9.4
2018-02-07T05:00:02.093Z,-9.4
2018-02-07T05:05:01.326Z,-9.4
2018-02-07T05:10:01.734Z,-9.4
2018-02-07T05:15:02.143Z,-9.4
2018-02-07T05:20:01.900Z,-9.4
2018-02-07T05:25:02.243Z,-9.4
2018-02-07T05:30:01.463Z,-9.4
2018-02-07T05:35:01.550Z,-9.4
2018-02-07T05:40:01.769Z,-9.4
2018-02-07T05:45:01.729Z,-9.4
2018-02-07T05:50:01.694Z,-9.4
2018-02-07T05:55:01.554Z,-9.4
2018-02-07T06:00:02.248Z,-9.4
2018-02-07T06:05:01.884Z,-9.4
2018-02-07T06:10:02.172Z,-9.4
2018-02-07T06:15:01.961Z,-9.4
2018-02-07T06:20:01.987Z,-9.4
2018-02-07T06:25:02.153Z,-9.4
2018-02-07T06:30:01.384Z,-9.4
2018-02-07T06:35:02.139Z,-9.4
2018-02-07T06:40:01.954Z,-9.3
2018-02-07T06:45:01.571Z,-9.3
2018-02-07T06:50:01.693Z,-9.3
2018-02-07T06:55:02.028Z,-9.3
2018-02-07T07:00:02.166Z,-9.3
2018-02-07T07:05:01.677Z,-9.3
2018-02-07T07:10:02.459Z,-9.3
2018-02-07T07:15:01.528Z,-9.3
2018-02-07T07:20:01.673Z,-9.3
2018-02-07T07:25:01.860Z,-9.3
2018-02-07T07:30:01.957Z,-9.3
2018-02-07T07:35:01.938Z,-9.3
2018-02-07T07:40:01.843Z,-9.3
2018-02-07T07:45:01.845Z,-9.3
2018-02-07T07:50:01.541Z,-9.3
2018-02-07T07:55:02.050Z,-9.3
2018-02-07T08:00:01.672Z,-9.3
2018-02-07T08:05:01.739Z,-9.3
2018-02-07T08:10:01.562Z,-9.3
2018-02-07T08:15:01.739Z,-9.3
2018-02-07T08:20:01.605Z,-9.3
2018-02-07T08:25:01.581Z,-9.3
2018-02-07T08:30:02.181Z,-9.3
2018-02-07T08:35:01.676Z,-9.3
2018-02-07T08:40:01.944Z,-9.3
2018-02-07T08:45:01.739Z,-9.3
2018-02-07T08:50:02.340Z,-9.3
2018-02-07T08:55:02.048Z,-9.3
2018-02-07T09:00:01.450Z,-9.3
2018-02-07T09:05:01.373Z,-5.9
2018-02-07T09:10:02.106Z,-5.9
2018-02-07T09:15:01.604Z,-5.3
2018-02-07T09:20:01.668Z,-5.3
2018-02-07T09:25:01.622Z,-5.3
2018-02-07T09:30:01.820Z,-5.3
2018-02-07T09:35:01.849Z,-5.3
2018-02-07T09:40:01.917Z,-3.7
2018-02-07T09:45:01.678Z,-3.7
2018-02-07T09:50:01.669Z,-3.7
2018-02-07T09:55:01.960Z,-3.7
2018-02-07T10:00:02.102Z,-3.7
2018-02-07T10:05:01.806Z,-3.7
2018-02-07T10:10:02.027Z,-3.7
2018-02-07T10:15:01.604Z,-3.7
2018-02-07T10:20:01.845Z,-1.2
2018-02-07T10:25:01.803Z,-1.2
2018-02-07T10:30:01.227Z,-1.2
2018-02-07T10:35:02.337Z,-1.2
2018-02-07T10:40:01.253Z,-1.2
2018-02-07T10:45:01.185Z,-1.2
2018-02-07T10:50:01.269Z,-1.2
2018-02-07T10:55:01.575Z,-1.2
2018-02-07T11:00:02.019Z,0.4
2018-02-07T11:05:02.139Z,0.4
2018-02-07T11:10:01.543Z,0.4
2018-02-07T11:15:02.189Z,0.4
2018-02-07T11:20:01.906Z,0.4
2018-02-07T11:25:02.160Z,1.1
2018-02-07T11:30:01.651Z,1.1
2018-02-07T11:35:01.854Z,1.1
2018-02-07T11:40:01.820Z,1.1
2018-02-07T11:45:01.851Z,1.1
2018-02-07T11:50:01.996Z,1.7
2018-02-07T11:55:01.813Z,1.7
2018-02-07T12:00:01.288Z,1.7
2018-02-07T12:05:01.557Z,1.7
2018-02-07T12:10:01.605Z,1.7
2018-02-07T12:15:01.411Z,2.1
2018-02-07T12:20:01.853Z,2.1
2018-02-07T12:25:02.072Z,2
2018-02-07T12:30:01.463Z,2
2018-02-07T12:35:01.557Z,2
2018-02-07T12:40:01.686Z,2
2018-02-07T12:45:01.427Z,2
2018-02-07T12:50:02.120Z,2
2018-02-07T12:55:01.739Z,2
2018-02-07T13:00:01.276Z,2
2018-02-07T13:05:01.255Z,2
2018-02-07T13:10:01.586Z,2
2018-02-07T13:15:02.050Z,2
2018-02-07T13:20:02.040Z,2
2018-02-07T13:25:02.460Z,2
2018-02-07T13:30:02.056Z,2
2018-02-07T13:35:01.287Z,2
2018-02-07T13:40:02.862Z,2
2018-02-07T13:45:01.495Z,2
2018-02-07T13:50:02.174Z,2
2018-02-07T13:55:01.688Z,2
2018-02-07T14:00:01.963Z,2
2018-02-07T14:05:02.356Z,2.2
2018-02-07T14:10:02.057Z,2.2
2018-02-07T14:15:02.138Z,2.2
2018-02-07T14:20:01.254Z,2.2
2018-02-07T14:25:02.035Z,2.2
2018-02-07T14:30:01.457Z,2.2
2018-02-07T14:35:01.667Z,2.2
2018-02-07T14:40:01.937Z,2.2
2018-02-07T14:45:02.180Z,2.2
2018-02-07T14:50:01.648Z,1.9
2018-02-07T14:55:01.810Z,1.9
2018-02-07T15:00:02.120Z,1.9
2018-02-07T15:05:01.335Z,1.9
2018-02-07T15:10:01.838Z,1.9
2018-02-07T15:15:01.671Z,1.4
2018-02-07T15:20:01.513Z,1.4
2018-02-07T15:25:02.314Z,1.4
2018-02-07T15:30:01.307Z,1.4
2018-02-07T15:35:01.858Z,1.4
2018-02-07T15:40:01.325Z,1.4
2018-02-07T15:45:02.390Z,0.5
2018-02-07T15:50:01.353Z,0.5
2018-02-07T15:55:01.849Z,0.1
2018-02-07T16:00:02.474Z,0
2018-02-07T16:05:01.506Z,-0.3
2018-02-07T16:10:01.510Z,-0.3
2018-02-07T16:15:01.772Z,-0.6
2018-02-07T16:20:02.248Z,-0.6
2018-02-07T16:25:02.100Z,-0.9
2018-02-07T16:30:02.061Z,-0.9
2018-02-07T16:35:02.590Z,-0.9
2018-02-07T16:40:01.754Z,-0.9
2018-02-07T16:45:02.012Z,-0.9
2018-02-07T16:50:01.362Z,-1.7
2018-02-07T16:55:02.649Z,-1.8
2018-02-07T17:00:01.165Z,-1.8
2018-02-07T17:05:01.674Z,-2.2
2018-02-07T17:10:01.930Z,-2.2
2018-02-07T17:15:01.617Z,-2.2
2018-02-07T17:20:01.419Z,-2.6
2018-02-07T17:25:02.042Z,-2.6
2018-02-07T17:30:01.777Z,-2.6
2018-02-07T17:35:02.159Z,-2.6
2018-02-07T17:40:02.132Z,-2.6
2018-02-07T17:45:01.404Z,-2.6
2018-02-07T17:50:02.301Z,-2.6
2018-02-07T17:55:02.051Z,-2.6
2018-02-07T18:00:01.463Z,-2.6
2018-02-07T18:05:01.509Z,-2.6
2018-02-07T18:10:01.797Z,-3.6
2018-02-07T18:15:01.630Z,-3.6
2018-02-07T18:20:01.677Z,-3.6
2018-02-07T18:25:01.963Z,-3.6
2018-02-07T18:30:01.499Z,-3.6
2018-02-07T18:35:01.550Z,-4.1
2018-02-07T18:40:01.529Z,-4.1
2018-02-07T18:45:01.706Z,-4.1
2018-02-07T18:50:02.445Z,-4.1
2018-02-07T18:55:01.783Z,-4.1
2018-02-07T19:00:01.922Z,-4.1
2018-02-07T19:05:01.939Z,-4.1
2018-02-07T19:10:02.431Z,-4.1
2018-02-07T19:15:01.455Z,-4.1
2018-02-07T19:20:02.637Z,-4.1
2018-02-07T19:25:01.567Z,-4.1
2018-02-07T19:30:02.103Z,-4.1
2018-02-07T19:35:02.024Z,-4.1
2018-02-07T19:40:01.653Z,-5.3
2018-02-07T19:45:01.890Z,-5.3
2018-02-07T19:50:01.992Z,-5.3
2018-02-07T19:55:02.012Z,-5.3
2018-02-07T20:00:01.559Z,-5.3
2018-02-07T20:05:01.821Z,-5.3
2018-02-07T20:10:02.362Z,-5.8
2018-02-07T20:15:01.596Z,-5.9
2018-02-07T20:20:02.665Z,-5.9
2018-02-07T20:25:01.737Z,-5.9
2018-02-07T20:30:02.599Z,-5.9
2018-02-07T20:35:02.073Z,-5.9
2018-02-07T20:40:01.741Z,-5.9
2018-02-07T20:45:01.908Z,-5.9
2018-02-07T20:50:02.259Z,-6.3
2018-02-07T20:55:01.682Z,-6.4
2018-02-07T21:00:01.947Z,-6.4
2018-02-07T21:05:01.247Z,-6.4
2018-02-07T21:10:02.053Z,-6.4
2018-02-07T21:15:01.643Z,-6.4
2018-02-07T21:20:01.983Z,-6.4
2018-02-07T21:25:02.057Z,-6.4
2018-02-07T21:30:01.236Z,-6.4
2018-02-07T21:35:01.460Z,-6.4
2018-02-07T21:40:02.609Z,-6.4
2018-02-07T21:45:01.489Z,-6.8
2018-02-07T21:50:01.381Z,-6.8
2018-02-07T21:55:01.271Z,-6.8
2018-02-07T22:00:01.978Z,-6.8
2018-02-07T22:05:01.299Z,-6.8
2018-02-07T22:10:01.544Z,-6.8
2018-02-07T22:15:02.218Z,-6.8
2018-02-07T22:20:01.810Z,-6.8
2018-02-07T22:25:01.976Z,-6.8
2018-02-07T22:30:01.762Z,-6.8
2018-02-07T22:35:01.979Z,-6.8
2018-02-07T22:40:02.280Z,-6.8
2018-02-07T22:45:02.135Z,-6.8
2018-02-07T22:50:01.878Z,-6.8
2018-02-07T22:55:01.686Z,-6.9
2018-02-07T23:00:02.194Z,-6.9
2018-02-07T23:05:01.713Z,-6.9
2018-02-07T23:10:02.247Z,-6.8
2018-02-07T23:15:01.493Z,-6.8
2018-02-07T23:20:01.253Z,-6.7
2018-02-07T23:25:01.386Z,-6.7
2018-02-07T23:30:02.438Z,-6.7
2018-02-07T23:35:01.755Z,-6.7
2018-02-07T23:40:02.189Z,-6.7
2018-02-07T23:45:01.311Z,-6.7
2018-02-07T23:50:01.510Z,-6.6
2018-02-07T23:55:01.645Z,-6.5
